Stolt Endurance — D5BW5 — position and weather

sailwx.info

Track history (hours):
 
Tides and Currents Weather Stations Pressure Air Temp Water Temp Dewpoint Dewpoint Depression Visibility Wind Speed Wind Dir Waves Ship Positions

Stolt Endurance

Last reported at 2018-Feb-16 10:49 UTC. Time now 2018-Feb-21 01:38 UTC.
Position N 28°37' W 093°32'.

Length 175 m; draft 7.5 m.

Type: Tanker. MMSI: 636015619.

Date/timePositionNaut miles runAvg speedWind from/ knotsBaromVisibWave heightAir tempDewpointWater temp
2018-Feb-16 10:49N 28°37' W 093°32'714.9
2018-Feb-16 10:22N 28°41' W 093°39'2014.8
2018-Feb-16 09:02N 28°52' W 093°57'614.7
2018-Feb-16 08:36N 28°55' W 094°03'214.2
2018-Feb-16 08:28N 28°56' W 094°05'5 9.5
2018-Feb-16 07:57N 28°59' W 094°10'0 0.9
2018-Feb-16 07:29N 28°59' W 094°09'0 0.8
2018-Feb-16 07:00N 28°58' W 094°09'0 1.0
2018-Feb-16 06:30N 28°58' W 094°09'0 0.9
2018-Feb-16 06:00N 28°58' W 094°08'0 0.8
2018-Feb-16 05:30N 28°58' W 094°08'1 0.9
2018-Feb-16 04:54N 28°57' W 094°07'0 0.9
2018-Feb-16 04:30N 28°57' W 094°07'0 0.9
2018-Feb-16 04:00N 28°57' W 094°06'0 1.0
2018-Feb-16 03:29N 28°57' W 094°06'0 0.9
2018-Feb-16 03:00N 28°57' W 094°05'0 1.0
2018-Feb-16 02:30N 28°57' W 094°05'2 3.2
2018-Feb-16 02:00N 28°58' W 094°06'612.2
2018-Feb-16 01:30N 29°02' W 094°12'1013.6
2018-Feb-16 00:45N 29°07' W 094°21'414.3
2018-Feb-16 00:29N 29°09' W 094°25'714.4
2018-Feb-16 00:00N 29°12' W 094°32'812.5
2018-Feb-15 23:20N 29°19' W 094°38'3 8.3
2018-Feb-15 23:01N 29°20' W 094°41'5 9.2
2018-Feb-15 22:26N 29°21' W 094°47'8 9.5
2018-Feb-15 21:32N 29°28' W 094°51'210.8
2018-Feb-15 21:23N 29°30' W 094°52'511.0
2018-Feb-15 20:59N 29°34' W 094°55'13 9.2
2018-Feb-15 19:36N 29°44' W 095°03'1 6.1
2018-Feb-15 19:29N 29°45' W 095°04'3 0.1
2018-Feb-13 20:00N 29°44' W 095°07'3 5.5
2018-Feb-13 19:30N 29°45' W 095°10'  
2018-Feb-09 01:30N 29°21' W 094°43'0 0.0
2018-Feb-09 00:00N 29°21' W 094°43'  
Track history (hours):
 
Tides and Currents Weather Stations Pressure Air Temp Water Temp Dewpoint Dewpoint Depression Visibility Wind Speed Wind Dir Waves Ship Positions

Stolt Endurance

Last reported at 2018-Feb-16 10:49 UTC. Time now 2018-Feb-21 01:38 UTC.
Position N 28°37' W 093°32'.

Length 175 m; draft 7.5 m.

Type: Tanker. MMSI: 636015619.

Date/timePositionNaut miles runAvg speedWind from/ knotsBaromVisibWave heightAir tempDewpointWater temp
2018-Feb-16 10:49N 28°37' W 093°32'714.9
2018-Feb-16 10:22N 28°41' W 093°39'2014.8
2018-Feb-16 09:02N 28°52' W 093°57'614.7
2018-Feb-16 08:36N 28°55' W 094°03'214.2
2018-Feb-16 08:28N 28°56' W 094°05'5 9.5
2018-Feb-16 07:57N 28°59' W 094°10'0 0.9
2018-Feb-16 07:29N 28°59' W 094°09'0 0.8
2018-Feb-16 07:00N 28°58' W 094°09'0 1.0
2018-Feb-16 06:30N 28°58' W 094°09'0 0.9
2018-Feb-16 06:00N 28°58' W 094°08'0 0.8
2018-Feb-16 05:30N 28°58' W 094°08'1 0.9
2018-Feb-16 04:54N 28°57' W 094°07'0 0.9
2018-Feb-16 04:30N 28°57' W 094°07'0 0.9
2018-Feb-16 04:00N 28°57' W 094°06'0 1.0
2018-Feb-16 03:29N 28°57' W 094°06'0 0.9
2018-Feb-16 03:00N 28°57' W 094°05'0 1.0
2018-Feb-16 02:30N 28°57' W 094°05'2 3.2
2018-Feb-16 02:00N 28°58' W 094°06'612.2
2018-Feb-16 01:30N 29°02' W 094°12'1013.6
2018-Feb-16 00:45N 29°07' W 094°21'414.3
2018-Feb-16 00:29N 29°09' W 094°25'714.4
2018-Feb-16 00:00N 29°12' W 094°32'812.5
2018-Feb-15 23:20N 29°19' W 094°38'3 8.3
2018-Feb-15 23:01N 29°20' W 094°41'5 9.2
2018-Feb-15 22:26N 29°21' W 094°47'8 9.5
2018-Feb-15 21:32N 29°28' W 094°51'210.8
2018-Feb-15 21:23N 29°30' W 094°52'511.0
2018-Feb-15 20:59N 29°34' W 094°55'13 9.2
2018-Feb-15 19:36N 29°44' W 095°03'1 6.1
2018-Feb-15 19:29N 29°45' W 095°04'3 0.1
2018-Feb-13 20:00N 29°44' W 095°07'3 5.5
2018-Feb-13 19:30N 29°45' W 095°10'  
2018-Feb-09 01:30N 29°21' W 094°43'0 0.0
2018-Feb-09 00:00N 29°21' W 094°43'  

Dump ship's entire track history